sensor_id;sensor_type;location;lat;lon;timestamp;P1;P2;P0
77239;PMS7003;66258;53.170;-2.240;2023-05-07T00:02:09;3822.75;3822.75;3822.75
77239;PMS7003;66258;53.170;-2.240;2023-05-07T00:04:36;3839.75;3839.75;3839.75
77239;PMS7003;66258;53.170;-2.240;2023-05-07T00:07:03;3822.80;3822.80;3822.80
77239;PMS7003;66258;53.170;-2.240;2023-05-07T00:09:33;3820.50;3820.50;3820.50
77239;PMS7003;66258;53.170;-2.240;2023-05-07T00:12:00;3791.80;3791.80;3791.80
77239;PMS7003;66258;53.170;-2.240;2023-05-07T00:14:27;3802.20;3802.20;3802.20
77239;PMS7003;66258;53.170;-2.240;2023-05-07T00:16:54;3831.00;3831.00;3831.00
77239;PMS7003;66258;53.170;-2.240;2023-05-07T00:19:22;3842.25;3842.25;3842.25
77239;PMS7003;66258;53.170;-2.240;2023-05-07T00:21:49;3835.50;3835.50;3835.50
77239;PMS7003;66258;53.170;-2.240;2023-05-07T00:24:16;3833.50;3833.50;3833.50
77239;PMS7003;66258;53.170;-2.240;2023-05-07T00:26:44;3820.50;3820.50;3820.50
77239;PMS7003;66258;53.170;-2.240;2023-05-07T00:29:11;3836.40;3836.40;3836.40
77239;PMS7003;66258;53.170;-2.240;2023-05-07T00:31:41;3829.50;3829.50;3829.50
77239;PMS7003;66258;53.170;-2.240;2023-05-07T00:34:08;3829.50;3829.50;3829.50
77239;PMS7003;66258;53.170;-2.240;2023-05-07T00:36:36;3797.00;3797.00;3797.00
77239;PMS7003;66258;53.170;-2.240;2023-05-07T00:39:03;3841.80;3841.80;3841.80
77239;PMS7003;66258;53.170;-2.240;2023-05-07T00:41:31;3818.50;3818.50;3818.50
77239;PMS7003;66258;53.170;-2.240;2023-05-07T00:44:00;3802.20;3802.20;3802.20
77239;PMS7003;66258;53.170;-2.240;2023-05-07T00:46:28;3819.20;3819.20;3819.20
77239;PMS7003;66258;53.170;-2.240;2023-05-07T00:48:59;3795.00;3795.00;3795.00
77239;PMS7003;66258;53.170;-2.240;2023-05-07T00:51:27;3825.00;3825.00;3825.00
77239;PMS7003;66258;53.170;-2.240;2023-05-07T00:53:56;3801.25;3801.25;3801.25
77239;PMS7003;66258;53.170;-2.240;2023-05-07T00:56:24;3829.50;3829.50;3829.50
77239;PMS7003;66258;53.170;-2.240;2023-05-07T00:58:51;3836.40;3836.40;3836.40
77239;PMS7003;66258;53.170;-2.240;2023-05-07T01:01:20;3855.50;3855.50;3855.50
77239;PMS7003;66258;53.170;-2.240;2023-05-07T01:03:47;3821.00;3821.00;3821.00
77239;PMS7003;66258;53.170;-2.240;2023-05-07T01:06:16;3828.20;3828.20;3828.20
77239;PMS7003;66258;53.170;-2.240;2023-05-07T01:08:45;3821.00;3821.00;3821.00
77239;PMS7003;66258;53.170;-2.240;2023-05-07T01:11:13;3820.75;3820.75;3820.75
77239;PMS7003;66258;53.170;-2.240;2023-05-07T01:13:41;3828.20;3828.20;3828.20
77239;PMS7003;66258;53.170;-2.240;2023-05-07T01:16:09;3822.80;3822.80;3822.80
77239;PMS7003;66258;53.170;-2.240;2023-05-07T01:18:38;3813.80;3813.80;3813.80
77239;PMS7003;66258;53.170;-2.240;2023-05-07T01:21:06;3833.50;3833.50;3833.50
77239;PMS7003;66258;53.170;-2.240;2023-05-07T01:23:39;3800.20;3800.20;3800.20
77239;PMS7003;66258;53.170;-2.240;2023-05-07T01:26:07;3836.40;3836.40;3836.40
77239;PMS7003;66258;53.170;-2.240;2023-05-07T01:28:35;3841.80;3841.80;3841.80
77239;PMS7003;66258;53.170;-2.240;2023-05-07T01:31:02;3825.00;3825.00;3825.00
77239;PMS7003;66258;53.170;-2.240;2023-05-07T01:33:31;3828.20;3828.20;3828.20
77239;PMS7003;66258;53.170;-2.240;2023-05-07T01:36:01;3818.50;3818.50;3818.50
77239;PMS7003;66258;53.170;-2.240;2023-05-07T01:38:32;3803.60;3803.60;3803.60
77239;PMS7003;66258;53.170;-2.240;2023-05-07T01:41:01;3828.20;3828.20;3828.20
77239;PMS7003;66258;53.170;-2.240;2023-05-07T01:43:29;3829.50;3829.50;3829.50
77239;PMS7003;66258;53.170;-2.240;2023-05-07T01:45:57;3813.80;3813.80;3813.80
77239;PMS7003;66258;53.170;-2.240;2023-05-07T01:48:25;3833.40;3833.40;3833.40
77239;PMS7003;66258;53.170;-2.240;2023-05-07T01:50:53;3819.20;3819.20;3819.20
77239;PMS7003;66258;53.170;-2.240;2023-05-07T01:53:23;3796.75;3796.75;3796.75
77239;PMS7003;66258;53.170;-2.240;2023-05-07T01:55:50;3817.60;3817.60;3817.60
77239;PMS7003;66258;53.170;-2.240;2023-05-07T01:58:20;3820.50;3820.50;3820.50
77239;PMS7003;66258;53.170;-2.240;2023-05-07T02:00:47;3816.00;3816.00;3816.00
77239;PMS7003;66258;53.170;-2.240;2023-05-07T02:03:14;3828.20;3828.20;3828.20
77239;PMS7003;66258;53.170;-2.240;2023-05-07T02:05:42;3817.40;3817.40;3817.40
77239;PMS7003;66258;53.170;-2.240;2023-05-07T02:08:10;3835.50;3835.50;3835.50
77239;PMS7003;66258;53.170;-2.240;2023-05-07T02:10:37;3835.50;3835.50;3835.50
77239;PMS7003;66258;53.170;-2.240;2023-05-07T02:13:05;3843.60;3843.60;3843.60
77239;PMS7003;66258;53.170;-2.240;2023-05-07T02:15:35;3843.60;3843.60;3843.60
77239;PMS7003;66258;53.170;-2.240;2023-05-07T02:18:02;3831.75;3831.75;3831.75
77239;PMS7003;66258;53.170;-2.240;2023-05-07T02:20:32;3831.67;3831.67;3831.67
77239;PMS7003;66258;53.170;-2.240;2023-05-07T02:22:59;3823.00;3823.00;3823.00
77239;PMS7003;66258;53.170;-2.240;2023-05-07T02:25:26;3843.60;3843.60;3843.60
77239;PMS7003;66258;53.170;-2.240;2023-05-07T02:27:54;3841.80;3841.80;3841.80
77239;PMS7003;66258;53.170;-2.240;2023-05-07T02:30:21;3814.50;3814.50;3814.50
77239;PMS7003;66258;53.170;-2.240;2023-05-07T02:32:50;3788.50;3788.50;3788.50
77239;PMS7003;66258;53.170;-2.240;2023-05-07T02:35:18;3807.20;3807.20;3807.20
77239;PMS7003;66258;53.170;-2.240;2023-05-07T02:37:46;3796.75;3796.75;3796.75
77239;PMS7003;66258;53.170;-2.240;2023-05-07T02:40:13;3816.50;3816.50;3816.50
77239;PMS7003;66258;53.170;-2.240;2023-05-07T02:42:40;3820.75;3820.75;3820.75
77239;PMS7003;66258;53.170;-2.240;2023-05-07T02:45:10;3842.50;3842.50;3842.50
77239;PMS7003;66258;53.170;-2.240;2023-05-07T02:47:38;3838.00;3838.00;3838.00
77239;PMS7003;66258;53.170;-2.240;2023-05-07T02:50:08;3840.00;3840.00;3840.00
77239;PMS7003;66258;53.170;-2.240;2023-05-07T02:52:36;3843.60;3843.60;3843.60
77239;PMS7003;66258;53.170;-2.240;2023-05-07T02:55:05;3815.60;3815.60;3815.60
77239;PMS7003;66258;53.170;-2.240;2023-05-07T02:57:33;3838.00;3838.00;3838.00
77239;PMS7003;66258;53.170;-2.240;2023-05-07T03:00:09;3818.25;3818.25;3818.25
77239;PMS7003;66258;53.170;-2.240;2023-05-07T03:02:37;3827.25;3827.25;3827.25
77239;PMS7003;66258;53.170;-2.240;2023-05-07T03:05:07;3840.00;3840.00;3840.00
77239;PMS7003;66258;53.170;-2.240;2023-05-07T03:07:35;3829.00;3829.00;3829.00
77239;PMS7003;66258;53.170;-2.240;2023-05-07T03:10:03;3801.25;3801.25;3801.25
77239;PMS7003;66258;53.170;-2.240;2023-05-07T03:12:32;3807.40;3807.40;3807.40
77239;PMS7003;66258;53.170;-2.240;2023-05-07T03:15:00;3831.00;3831.00;3831.00
77239;PMS7003;66258;53.170;-2.240;2023-05-07T03:17:28;3852.00;3852.00;3852.00
77239;PMS7003;66258;53.170;-2.240;2023-05-07T03:19:56;3835.50;3835.50;3835.50
77239;PMS7003;66258;53.170;-2.240;2023-05-07T03:22:25;3825.00;3825.00;3825.00
77239;PMS7003;66258;53.170;-2.240;2023-05-07T03:24:53;3829.50;3829.50;3829.50
77239;PMS7003;66258;53.170;-2.240;2023-05-07T03:27:20;3834.60;3834.60;3834.60
77239;PMS7003;66258;53.170;-2.240;2023-05-07T03:29:48;3688.40;3686.80;3681.20
77239;PMS7003;66258;53.170;-2.240;2023-05-07T03:32:15;3813.75;3813.75;3813.75
77239;PMS7003;66258;53.170;-2.240;2023-05-07T03:34:43;3851.25;3851.25;3851.25
77239;PMS7003;66258;53.170;-2.240;2023-05-07T03:37:11;3822.75;3822.75;3822.75
77239;PMS7003;66258;53.170;-2.240;2023-05-07T03:39:40;3466.00;3464.00;3459.00
77239;PMS7003;66258;53.170;-2.240;2023-05-07T03:42:07;3844.50;3844.50;3844.50
77239;PMS7003;66258;53.170;-2.240;2023-05-07T03:44:34;3860.00;3860.00;3860.00
77239;PMS7003;66258;53.170;-2.240;2023-05-07T03:47:01;3872.00;3872.00;3872.00
77239;PMS7003;66258;53.170;-2.240;2023-05-07T03:49:29;3828.67;3828.67;3828.67
77239;PMS7003;66258;53.170;-2.240;2023-05-07T03:51:57;3851.67;3851.67;3851.67
77239;PMS7003;66258;53.170;-2.240;2023-05-07T03:54:25;3854.67;3854.67;3854.67
77239;PMS7003;66258;53.170;-2.240;2023-05-07T03:56:54;3845.67;3845.67;3845.67
77239;PMS7003;66258;53.170;-2.240;2023-05-07T03:59:22;3844.50;3844.50;3844.50
77239;PMS7003;66258;53.170;-2.240;2023-05-07T04:01:50;3674.50;3674.50;3672.50
77239;PMS7003;66258;53.170;-2.240;2023-05-07T04:04:17;3872.75;3872.75;3872.75
77239;PMS7003;66258;53.170;-2.240;2023-05-07T04:06:45;3873.40;3873.40;3873.40
77239;PMS7003;66258;53.170;-2.240;2023-05-07T04:09:12;3879.50;3879.50;3879.50
77239;PMS7003;66258;53.170;-2.240;2023-05-07T04:11:42;3858.00;3858.00;3858.00
77239;PMS7003;66258;53.170;-2.240;2023-05-07T04:14:12;3884.25;3884.25;3884.25
77239;PMS7003;66258;53.170;-2.240;2023-05-07T04:16:39;3844.25;3844.25;3844.25
77239;PMS7003;66258;53.170;-2.240;2023-05-07T04:19:07;3889.40;3889.40;3889.40
77239;PMS7003;66258;53.170;-2.240;2023-05-07T04:21:34;3862.25;3862.25;3862.25
77239;PMS7003;66258;53.170;-2.240;2023-05-07T04:24:02;3884.25;3884.25;3884.25
77239;PMS7003;66258;53.170;-2.240;2023-05-07T04:26:31;3878.60;3878.60;3878.60
77239;PMS7003;66258;53.170;-2.240;2023-05-07T04:28:58;3891.20;3891.20;3891.20
77239;PMS7003;66258;53.170;-2.240;2023-05-07T04:31:28;3860.00;3860.00;3860.00
77239;PMS7003;66258;53.170;-2.240;2023-05-07T04:33:55;3866.80;3866.80;3866.80
77239;PMS7003;66258;53.170;-2.240;2023-05-07T04:36:23;3837.75;3837.75;3837.75
77239;PMS7003;66258;53.170;-2.240;2023-05-07T04:38:51;3889.40;3889.40;3889.40
77239;PMS7003;66258;53.170;-2.240;2023-05-07T04:41:18;3846.50;3846.50;3846.50
77239;PMS7003;66258;53.170;-2.240;2023-05-07T04:43:46;3885.80;3885.80;3885.80
77239;PMS7003;66258;53.170;-2.240;2023-05-07T04:46:15;3856.00;3856.00;3856.00
77239;PMS7003;66258;53.170;-2.240;2023-05-07T04:48:44;3866.75;3866.75;3866.75
77239;PMS7003;66258;53.170;-2.240;2023-05-07T04:51:11;3886.50;3886.50;3886.50
77239;PMS7003;66258;53.170;-2.240;2023-05-07T04:53:39;3891.20;3891.20;3891.20
77239;PMS7003;66258;53.170;-2.240;2023-05-07T04:56:06;3890.75;3890.75;3890.75
77239;PMS7003;66258;53.170;-2.240;2023-05-07T04:58:34;3890.75;3890.75;3890.75
77239;PMS7003;66258;53.170;-2.240;2023-05-07T05:01:01;3856.00;3856.00;3856.00
77239;PMS7003;66258;53.170;-2.240;2023-05-07T05:03:28;3899.75;3899.75;3899.75
77239;PMS7003;66258;53.170;-2.240;2023-05-07T05:05:57;3860.00;3860.00;3860.00
77239;PMS7003;66258;53.170;-2.240;2023-05-07T05:08:25;3917.75;3917.75;3917.75
77239;PMS7003;66258;53.170;-2.240;2023-05-07T05:10:52;3884.00;3884.00;3884.00
77239;PMS7003;66258;53.170;-2.240;2023-05-07T05:13:19;3891.20;3891.20;3891.20
77239;PMS7003;66258;53.170;-2.240;2023-05-07T05:15:47;3875.00;3875.00;3875.00
77239;PMS7003;66258;53.170;-2.240;2023-05-07T05:18:14;3899.75;3899.75;3899.75
77239;PMS7003;66258;53.170;-2.240;2023-05-07T05:20:42;3899.75;3899.75;3899.75
77239;PMS7003;66258;53.170;-2.240;2023-05-07T05:23:13;3866.80;3866.80;3866.80
77239;PMS7003;66258;53.170;-2.240;2023-05-07T05:25:41;3886.25;3886.25;3886.25
77239;PMS7003;66258;53.170;-2.240;2023-05-07T05:28:08;3871.25;3871.25;3871.25
77239;PMS7003;66258;53.170;-2.240;2023-05-07T05:30:36;3862.25;3862.25;3862.25
77239;PMS7003;66258;53.170;-2.240;2023-05-07T05:33:04;3893.00;3893.00;3893.00
77239;PMS7003;66258;53.170;-2.240;2023-05-07T05:35:31;3871.40;3871.40;3871.40
77239;PMS7003;66258;53.170;-2.240;2023-05-07T05:37:58;3878.60;3878.60;3878.60
77239;PMS7003;66258;53.170;-2.240;2023-05-07T05:40:27;3881.75;3881.75;3881.75
77239;PMS7003;66258;53.170;-2.240;2023-05-07T05:42:54;3888.50;3888.50;3888.50
77239;PMS7003;66258;53.170;-2.240;2023-05-07T05:45:22;3851.00;3851.00;3851.00
77239;PMS7003;66258;53.170;-2.240;2023-05-07T05:47:49;3886.25;3886.25;3886.25
77239;PMS7003;66258;53.170;-2.240;2023-05-07T05:50:17;3851.00;3851.00;3851.00
77239;PMS7003;66258;53.170;-2.240;2023-05-07T05:52:45;3870.75;3870.75;3870.75
77239;PMS7003;66258;53.170;-2.240;2023-05-07T05:55:12;3890.75;3890.75;3890.75
77239;PMS7003;66258;53.170;-2.240;2023-05-07T05:57:41;3890.75;3890.75;3890.75
77239;PMS7003;66258;53.170;-2.240;2023-05-07T06:00:08;3842.00;3842.00;3842.00
77239;PMS7003;66258;53.170;-2.240;2023-05-07T06:02:36;3827.00;3827.00;3827.00
77239;PMS7003;66258;53.170;-2.240;2023-05-07T06:05:05;3856.00;3856.00;3856.00
77239;PMS7003;66258;53.170;-2.240;2023-05-07T06:07:33;3857.75;3857.75;3857.75
77239;PMS7003;66258;53.170;-2.240;2023-05-07T06:10:01;3852.40;3852.40;3852.40
77239;PMS7003;66258;53.170;-2.240;2023-05-07T06:12:28;3848.75;3848.75;3848.75
77239;PMS7003;66258;53.170;-2.240;2023-05-07T06:14:58;3825.67;3825.67;3825.67
77239;PMS7003;66258;53.170;-2.240;2023-05-07T06:17:25;3822.75;3822.75;3822.75
77239;PMS7003;66258;53.170;-2.240;2023-05-07T06:19:52;3820.50;3820.50;3820.50
77239;PMS7003;66258;53.170;-2.240;2023-05-07T06:22:20;3831.25;3831.25;3831.25
77239;PMS7003;66258;53.170;-2.240;2023-05-07T06:24:47;3857.67;3857.67;3857.67
77239;PMS7003;66258;53.170;-2.240;2023-05-07T06:27:15;3844.50;3844.50;3844.50
77239;PMS7003;66258;53.170;-2.240;2023-05-07T06:29:42;3816.00;3816.00;3816.00
77239;PMS7003;66258;53.170;-2.240;2023-05-07T06:32:12;3844.50;3844.50;3844.50
77239;PMS7003;66258;53.170;-2.240;2023-05-07T06:34:40;3831.60;3831.60;3831.60
77239;PMS7003;66258;53.170;-2.240;2023-05-07T06:37:08;3816.25;3816.25;3816.25
77239;PMS7003;66258;53.170;-2.240;2023-05-07T06:39:35;3796.75;3796.75;3796.75
77239;PMS7003;66258;53.170;-2.240;2023-05-07T06:42:02;3811.00;3811.00;3811.00
77239;PMS7003;66258;53.170;-2.240;2023-05-07T06:44:30;3835.75;3835.75;3835.75
77239;PMS7003;66258;53.170;-2.240;2023-05-07T06:46:57;3814.00;3814.00;3814.00
77239;PMS7003;66258;53.170;-2.240;2023-05-07T06:49:26;3831.25;3831.25;3831.25
77239;PMS7003;66258;53.170;-2.240;2023-05-07T06:51:53;3828.20;3828.20;3828.20
77239;PMS7003;66258;53.170;-2.240;2023-05-07T06:54:22;3820.50;3820.50;3820.50
77239;PMS7003;66258;53.170;-2.240;2023-05-07T06:56:49;3820.75;3820.75;3820.75
77239;PMS7003;66258;53.170;-2.240;2023-05-07T06:59:17;3831.67;3831.67;3831.67
77239;PMS7003;66258;53.170;-2.240;2023-05-07T07:01:44;3831.25;3831.25;3831.25
77239;PMS7003;66258;53.170;-2.240;2023-05-07T07:04:12;3801.25;3801.25;3801.25
77239;PMS7003;66258;53.170;-2.240;2023-05-07T07:06:41;3846.75;3846.75;3846.75
77239;PMS7003;66258;53.170;-2.240;2023-05-07T07:09:08;3813.80;3813.80;3813.80
77239;PMS7003;66258;53.170;-2.240;2023-05-07T07:11:35;3820.50;3820.50;3820.50
77239;PMS7003;66258;53.170;-2.240;2023-05-07T07:14:03;3838.00;3838.00;3838.00
77239;PMS7003;66258;53.170;-2.240;2023-05-07T07:16:32;3819.20;3819.20;3819.20
77239;PMS7003;66258;53.170;-2.240;2023-05-07T07:18:59;3811.50;3811.50;3811.50
77239;PMS7003;66258;53.170;-2.240;2023-05-07T07:21:27;3799.25;3799.25;3799.25
77239;PMS7003;66258;53.170;-2.240;2023-05-07T07:23:56;3815.80;3815.80;3815.80
77239;PMS7003;66258;53.170;-2.240;2023-05-07T07:26:24;3785.00;3785.00;3785.00
77239;PMS7003;66258;53.170;-2.240;2023-05-07T07:28:51;3778.00;3778.00;3778.00
77239;PMS7003;66258;53.170;-2.240;2023-05-07T07:31:19;3773.20;3773.20;3773.20
77239;PMS7003;66258;53.170;-2.240;2023-05-07T07:33:46;3777.80;3777.80;3777.80
77239;PMS7003;66258;53.170;-2.240;2023-05-07T07:36:15;3775.75;3775.75;3775.75
77239;PMS7003;66258;53.170;-2.240;2023-05-07T07:38:43;3774.40;3774.40;3774.40
77239;PMS7003;66258;53.170;-2.240;2023-05-07T07:41:12;3752.80;3752.80;3752.80
77239;PMS7003;66258;53.170;-2.240;2023-05-07T07:43:39;3751.00;3751.00;3751.00
77239;PMS7003;66258;53.170;-2.240;2023-05-07T07:46:07;3703.60;3703.60;3703.60
77239;PMS7003;66258;53.170;-2.240;2023-05-07T07:48:35;3677.80;3677.80;3677.80
77239;PMS7003;66258;53.170;-2.240;2023-05-07T07:51:03;3618.00;3618.00;3618.00
77239;PMS7003;66258;53.170;-2.240;2023-05-07T07:53:31;3620.00;3620.00;3620.00
77239;PMS7003;66258;53.170;-2.240;2023-05-07T07:55:58;3525.25;3523.50;3521.00
77239;PMS7003;66258;53.170;-2.240;2023-05-07T07:58:26;3551.00;3551.00;3551.00
77239;PMS7003;66258;53.170;-2.240;2023-05-07T08:00:54;3575.75;3575.75;3575.75
77239;PMS7003;66258;53.170;-2.240;2023-05-07T08:03:21;3558.60;3558.60;3558.60
77239;PMS7003;66258;53.170;-2.240;2023-05-07T08:05:49;3561.60;3561.60;3561.60
77239;PMS7003;66258;53.170;-2.240;2023-05-07T08:08:16;3072.60;3059.60;3052.80
77239;PMS7003;66258;53.170;-2.240;2023-05-07T08:10:44;2563.00;2558.80;2503.40
77239;PMS7003;66258;53.170;-2.240;2023-05-07T08:13:12;2991.60;2985.40;2970.60
77239;PMS7003;66258;53.170;-2.240;2023-05-07T08:15:42;1325.20;1296.20;1267.00
77239;PMS7003;66258;53.170;-2.240;2023-05-07T08:18:10;2829.60;2827.60;2808.60
77239;PMS7003;66258;53.170;-2.240;2023-05-07T08:20:37;1401.40;1382.40;1351.40
77239;PMS7003;66258;53.170;-2.240;2023-05-07T08:23:05;2370.80;2357.40;2332.40
77239;PMS7003;66258;53.170;-2.240;2023-05-07T08:25:32;2362.40;2358.20;2321.40
77239;PMS7003;66258;53.170;-2.240;2023-05-07T08:28:00;2239.00;2230.20;2201.40
77239;PMS7003;66258;53.170;-2.240;2023-05-07T08:30:28;3028.80;3021.00;3013.80
77239;PMS7003;66258;53.170;-2.240;2023-05-07T08:32:57;1835.00;1820.40;1777.80
77239;PMS7003;66258;53.170;-2.240;2023-05-07T08:35:26;1897.40;1885.60;1854.40
77239;PMS7003;66258;53.170;-2.240;2023-05-07T08:37:54;2174.40;2169.40;2130.60
77239;PMS7003;66258;53.170;-2.240;2023-05-07T08:40:21;1027.00;1015.80;942.00
77239;PMS7003;66258;53.170;-2.240;2023-05-07T08:42:52;2640.00;2631.60;2607.80
77239;PMS7003;66258;53.170;-2.240;2023-05-07T08:45:20;2019.60;2013.60;1976.80
77239;PMS7003;66258;53.170;-2.240;2023-05-07T08:47:50;108.20;107.60;58.80
77239;PMS7003;66258;53.170;-2.240;2023-05-07T08:50:24;2244.40;2239.80;2202.60
77239;PMS7003;66258;53.170;-2.240;2023-05-07T08:52:51;665.20;618.60;585.40
77239;PMS7003;66258;53.170;-2.240;2023-05-07T08:55:19;1151.80;1124.80;1082.20
77239;PMS7003;66258;53.170;-2.240;2023-05-07T08:57:47;1767.00;1760.00;1710.80
77239;PMS7003;66258;53.170;-2.240;2023-05-07T09:00:15;1553.60;1546.40;1492.00
77239;PMS7003;66258;53.170;-2.240;2023-05-07T09:02:48;1544.20;1533.60;1482.60
77239;PMS7003;66258;53.170;-2.240;2023-05-07T09:05:15;464.80;460.80;388.60
77239;PMS7003;66258;53.170;-2.240;2023-05-07T09:07:44;1756.40;1745.80;1706.80
77239;PMS7003;66258;53.170;-2.240;2023-05-07T09:10:12;441.20;437.60;398.60
77239;PMS7003;66258;53.170;-2.240;2023-05-07T09:12:40;376.00;374.80;328.20
77239;PMS7003;66258;53.170;-2.240;2023-05-07T09:15:08;326.00;324.60;265.40
77239;PMS7003;66258;53.170;-2.240;2023-05-07T09:17:36;431.20;428.00;402.20
77239;PMS7003;66258;53.170;-2.240;2023-05-07T09:20:06;75.60;67.80;53.60
77239;PMS7003;66258;53.170;-2.240;2023-05-07T09:22:37;69.80;53.00;42.40
77239;PMS7003;66258;53.170;-2.240;2023-05-07T09:25:07;52.25;44.50;35.25
77239;PMS7003;66258;53.170;-2.240;2023-05-07T09:27:35;60.25;49.25;39.75
77239;PMS7003;66258;53.170;-2.240;2023-05-07T09:30:05;72.00;61.00;54.25
77239;PMS7003;66258;53.170;-2.240;2023-05-07T09:32:34;77.20;70.00;66.40
77239;PMS7003;66258;53.170;-2.240;2023-05-07T09:35:01;70.00;58.00;51.75
77239;PMS7003;66258;53.170;-2.240;2023-05-07T09:37:30;62.50;51.75;40.75
77239;PMS7003;66258;53.170;-2.240;2023-05-07T09:39:59;67.75;55.25;38.50
77239;PMS7003;66258;53.170;-2.240;2023-05-07T09:42:27;78.00;71.20;61.20
77239;PMS7003;66258;53.170;-2.240;2023-05-07T09:44:55;92.75;92.50;86.50
77239;PMS7003;66258;53.170;-2.240;2023-05-07T09:47:23;86.80;80.40;68.00
77239;PMS7003;66258;53.170;-2.240;2023-05-07T09:49:54;84.60;82.60;67.20
77239;PMS7003;66258;53.170;-2.240;2023-05-07T09:52:24;419.25;417.25;397.75
77239;PMS7003;66258;53.170;-2.240;2023-05-07T09:54:53;80.20;73.40;61.20
77239;PMS7003;66258;53.170;-2.240;2023-05-07T09:57:21;148.75;138.00;122.50
77239;PMS7003;66258;53.170;-2.240;2023-05-07T09:59:52;68.00;55.33;50.33
77239;PMS7003;66258;53.170;-2.240;2023-05-07T10:02:22;76.80;70.20;58.80
77239;PMS7003;66258;53.170;-2.240;2023-05-07T10:04:52;84.20;81.40;75.20
77239;PMS7003;66258;53.170;-2.240;2023-05-07T10:07:21;93.00;92.20;83.60
77239;PMS7003;66258;53.170;-2.240;2023-05-07T10:09:50;94.80;94.80;78.40
77239;PMS7003;66258;53.170;-2.240;2023-05-07T10:12:20;79.40;72.00;51.80
77239;PMS7003;66258;53.170;-2.240;2023-05-07T10:14:48;80.80;74.20;56.00
77239;PMS7003;66258;53.170;-2.240;2023-05-07T10:17:18;76.00;68.67;64.67
77239;PMS7003;66258;53.170;-2.240;2023-05-07T10:19:46;75.80;66.60;54.00
77239;PMS7003;66258;53.170;-2.240;2023-05-07T10:22:15;69.33;57.33;54.67
77239;PMS7003;66258;53.170;-2.240;2023-05-07T10:24:44;69.80;57.00;44.00
77239;PMS7003;66258;53.170;-2.240;2023-05-07T10:27:15;65.67;53.67;43.33
77239;PMS7003;66258;53.170;-2.240;2023-05-07T10:29:49;62.50;50.25;42.50
77239;PMS7003;66258;53.170;-2.240;2023-05-07T10:32:31;42.00;37.25;29.00
77239;PMS7003;66258;53.170;-2.240;2023-05-07T10:35:07;27.25;25.75;20.50
77239;PMS7003;66258;53.170;-2.240;2023-05-07T10:37:40;46.25;39.50;31.25
77239;PMS7003;66258;53.170;-2.240;2023-05-07T10:40:09;28.00;28.00;22.25
77239;PMS7003;66258;53.170;-2.240;2023-05-07T10:42:38;29.00;29.00;21.75
77239;PMS7003;66258;53.170;-2.240;2023-05-07T10:45:19;51.25;42.00;31.25
77239;PMS7003;66258;53.170;-2.240;2023-05-07T10:48:06;13.40;13.20;9.00
77239;PMS7003;66258;53.170;-2.240;2023-05-07T10:53:47;12.60;12.60;8.40
77239;PMS7003;66258;53.170;-2.240;2023-05-07T10:56:24;15.20;15.00;10.60
77239;PMS7003;66258;53.170;-2.240;2023-05-07T10:58:52;30.00;29.25;23.00
77239;PMS7003;66258;53.170;-2.240;2023-05-07T11:04:19;19.25;18.00;13.75
77239;PMS7003;66258;53.170;-2.240;2023-05-07T11:10:02;31.67;29.00;23.33
77239;PMS7003;66258;53.170;-2.240;2023-05-07T11:12:52;7.75;7.75;5.75
77239;PMS7003;66258;53.170;-2.240;2023-05-07T11:18:14;26.67;25.33;22.33
77239;PMS7003;66258;53.170;-2.240;2023-05-07T11:20:47;53.75;45.50;35.75
77239;PMS7003;66258;53.170;-2.240;2023-05-07T11:26:44;40.75;35.25;28.50
77239;PMS7003;66258;53.170;-2.240;2023-05-07T11:29:14;4.80;4.80;4.00
77239;PMS7003;66258;53.170;-2.240;2023-05-07T11:31:48;2.80;2.60;1.40
77239;PMS7003;66258;53.170;-2.240;2023-05-07T11:34:20;2.00;2.00;1.20
77239;PMS7003;66258;53.170;-2.240;2023-05-07T11:36:50;1.00;1.00;1.00
77239;PMS7003;66258;53.170;-2.240;2023-05-07T11:39:25;3.80;2.20;1.40
77239;PMS7003;66258;53.170;-2.240;2023-05-07T11:41:53;0.80;0.80;0.20
77239;PMS7003;66258;53.170;-2.240;2023-05-07T11:44:21;2.40;2.40;1.20
77239;PMS7003;66258;53.170;-2.240;2023-05-07T11:46:49;3.20;1.20;0.20
77239;PMS7003;66258;53.170;-2.240;2023-05-07T11:49:17;1.40;1.40;0.00
77239;PMS7003;66258;53.170;-2.240;2023-05-07T11:51:44;1.00;1.00;0.60
77239;PMS7003;66258;53.170;-2.240;2023-05-07T11:54:13;2.40;2.40;0.60
77239;PMS7003;66258;53.170;-2.240;2023-05-07T11:56:43;3.20;2.20;1.00
77239;PMS7003;66258;53.170;-2.240;2023-05-07T11:59:11;4.00;1.80;1.00
77239;PMS7003;66258;53.170;-2.240;2023-05-07T12:01:39;4.00;1.80;1.00
77239;PMS7003;66258;53.170;-2.240;2023-05-07T12:04:06;2.20;2.20;1.80
77239;PMS7003;66258;53.170;-2.240;2023-05-07T12:06:36;2.20;2.20;2.00
77239;PMS7003;66258;53.170;-2.240;2023-05-07T12:09:04;2.00;2.00;1.40
77239;PMS7003;66258;53.170;-2.240;2023-05-07T12:11:33;1.80;1.80;1.80
77239;PMS7003;66258;53.170;-2.240;2023-05-07T12:14:01;2.00;2.00;1.80
77239;PMS7003;66258;53.170;-2.240;2023-05-07T12:16:31;7.20;7.20;7.00
77239;PMS7003;66258;53.170;-2.240;2023-05-07T12:18:59;7.00;7.00;6.80
77239;PMS7003;66258;53.170;-2.240;2023-05-07T12:21:27;2.40;2.40;2.00
77239;PMS7003;66258;53.170;-2.240;2023-05-07T12:23:56;6.80;6.40;6.40
77239;PMS7003;66258;53.170;-2.240;2023-05-07T12:26:23;6.20;5.00;4.60
77239;PMS7003;66258;53.170;-2.240;2023-05-07T12:28:52;7.40;7.40;7.20
77239;PMS7003;66258;53.170;-2.240;2023-05-07T12:31:19;5.00;5.00;5.00
77239;PMS7003;66258;53.170;-2.240;2023-05-07T12:33:47;11.25;11.25;11.25
77239;PMS7003;66258;53.170;-2.240;2023-05-07T12:36:15;8.00;6.75;6.50
77239;PMS7003;66258;53.170;-2.240;2023-05-07T12:38:42;5.60;5.60;5.60
77239;PMS7003;66258;53.170;-2.240;2023-05-07T12:41:10;1.40;1.40;1.20
77239;PMS7003;66258;53.170;-2.240;2023-05-07T12:43:38;4.00;1.80;1.00
77239;PMS7003;66258;53.170;-2.240;2023-05-07T12:46:07;2.00;2.00;2.00
77239;PMS7003;66258;53.170;-2.240;2023-05-07T12:48:35;2.80;2.80;2.40
77239;PMS7003;66258;53.170;-2.240;2023-05-07T12:51:11;2.20;2.20;2.20
77239;PMS7003;66258;53.170;-2.240;2023-05-07T12:53:40;0.60;0.60;0.60
77239;PMS7003;66258;53.170;-2.240;2023-05-07T12:56:08;3.80;2.00;2.00
77239;PMS7003;66258;53.170;-2.240;2023-05-07T12:58:36;2.20;2.20;2.00
77239;PMS7003;66258;53.170;-2.240;2023-05-07T13:01:04;8.20;6.40;6.40
77239;PMS7003;66258;53.170;-2.240;2023-05-07T13:03:36;5.00;4.00;4.00
77239;PMS7003;66258;53.170;-2.240;2023-05-07T13:06:05;4.40;4.40;3.60
77239;PMS7003;66258;53.170;-2.240;2023-05-07T13:08:34;2.00;1.60;1.20
77239;PMS7003;66258;53.170;-2.240;2023-05-07T13:11:03;5.60;5.60;5.60
77239;PMS7003;66258;53.170;-2.240;2023-05-07T13:13:31;17.25;15.75;15.75
77239;PMS7003;66258;53.170;-2.240;2023-05-07T13:15:59;3.40;3.40;3.40